Time;durP1;ratioP1;P1;durP2;ratioP2;P2;SDS_P1;SDS_P2;PMS_P1;PMS_P2;Temp;Humidity;BMP_temperature;BMP_pressure;BME280_temperature;BME280_humidity;BME280_pressure;Samples;Min_cycle;Max_cycle;Signal;HPM_P1;HPM_P2
2021/07/04 00:02:27;;;;;;;4.90;3.13;;;18.80;78.40;;;;;;5082404;28;20045;-82
2021/07/04 00:04:54;;;;;;;9.38;4.07;;;18.70;78.40;;;;;;5067468;28;20041;-83
2021/07/04 00:07:21;;;;;;;13.80;4.07;;;18.70;78.50;;;;;;5067506;28;20098;-81
2021/07/04 00:09:48;;;;;;;10.77;3.65;;;18.70;78.50;;;;;;5061906;28;20055;-82
2021/07/04 00:12:15;;;;;;;10.57;3.20;;;18.70;78.40;;;;;;5087832;28;20053;-82
2021/07/04 00:14:42;;;;;;;10.48;3.60;;;18.70;78.40;;;;;;5087229;28;20496;-81
2021/07/04 00:17:09;;;;;;;8.57;3.28;;;18.70;78.40;;;;;;5054232;28;20529;-83
2021/07/04 00:19:36;;;;;;;5.75;3.45;;;18.60;78.40;;;;;;5055575;28;20048;-83
2021/07/04 00:22:03;;;;;;;9.50;4.47;;;18.60;78.40;;;;;;5087652;28;20052;-83
2021/07/04 00:24:30;;;;;;;10.10;3.90;;;18.60;78.40;;;;;;5055571;28;20055;-82
2021/07/04 00:26:57;;;;;;;9.90;3.25;;;18.60;78.50;;;;;;5087585;28;20045;-82
2021/07/04 00:29:24;;;;;;;9.15;3.95;;;18.60;78.40;;;;;;5055052;28;20045;-81
2021/07/04 00:31:51;;;;;;;8.30;3.65;;;18.60;78.40;;;;;;5055546;28;20510;-81
2021/07/04 00:34:18;;;;;;;9.63;3.95;;;18.50;78.50;;;;;;5087692;28;20415;-82
2021/07/04 00:36:45;;;;;;;7.50;3.67;;;18.60;78.60;;;;;;5054027;28;20059;-84
2021/07/04 00:39:13;;;;;;;8.52;3.60;;;18.60;78.60;;;;;;5055101;28;20041;-84
2021/07/04 00:41:40;;;;;;;9.10;3.47;;;18.50;78.50;;;;;;5053980;28;20400;-81
2021/07/04 00:44:07;;;;;;;7.35;3.50;;;18.50;78.40;;;;;;5053566;28;20041;-82
2021/07/04 00:46:34;;;;;;;8.50;3.83;;;18.50;78.30;;;;;;5055325;28;20056;-82
2021/07/04 00:49:01;;;;;;;9.10;4.10;;;18.50;78.30;;;;;;5055001;28;20056;-82
2021/07/04 00:51:28;;;;;;;13.27;4.30;;;18.40;78.10;;;;;;5053422;28;20049;-83
2021/07/04 00:53:55;;;;;;;8.65;4.15;;;18.40;78.20;;;;;;5054016;28;20060;-82
2021/07/04 00:56:22;;;;;;;7.75;3.85;;;18.40;78.20;;;;;;5070431;28;20502;-83
2021/07/04 00:58:49;;;;;;;12.20;3.70;;;18.40;78.20;;;;;;5054853;28;20049;-83
2021/07/04 01:01:16;;;;;;;11.60;4.00;;;18.40;78.20;;;;;;5070306;28;20045;-82
2021/07/04 01:03:43;;;;;;;5.10;3.28;;;18.40;78.20;;;;;;5053530;28;20049;-81
2021/07/04 01:06:11;;;;;;;9.50;4.20;;;18.40;78.30;;;;;;5053793;28;20049;-82
2021/07/04 01:08:38;;;;;;;15.00;3.83;;;18.30;78.50;;;;;;5053487;28;20052;-82
2021/07/04 01:11:05;;;;;;;6.43;3.75;;;18.30;78.60;;;;;;5054618;28;20041;-83
2021/07/04 01:13:32;;;;;;;7.53;3.75;;;18.30;78.60;;;;;;5053142;28;20049;-82
2021/07/04 01:16:00;;;;;;;10.55;3.83;;;18.30;78.60;;;;;;5053541;28;20135;-83
2021/07/04 01:18:27;;;;;;;13.18;3.65;;;18.30;78.60;;;;;;5054475;28;20083;-83
2021/07/04 01:20:58;;;;;;;15.30;3.83;;;18.20;78.50;;;;;;5052676;28;20055;-82
2021/07/04 01:23:25;;;;;;;14.05;3.58;;;18.20;78.50;;;;;;5052929;28;20045;-82
2021/07/04 01:25:54;;;;;;;6.53;3.40;;;18.20;78.40;;;;;;5053306;28;20439;-84
2021/07/04 01:28:23;;;;;;;7.53;3.45;;;18.10;78.40;;;;;;5054128;28;20056;-82
2021/07/04 01:30:55;;;;;;;11.55;3.92;;;18.20;78.40;;;;;;5054130;28;20049;-83
2021/07/04 01:33:22;;;;;;;12.90;3.58;;;18.10;78.50;;;;;;5053012;28;20041;-82
2021/07/04 01:35:50;;;;;;;8.27;3.83;;;18.10;78.50;;;;;;5053345;28;20068;-84
2021/07/04 01:38:17;;;;;;;6.32;3.35;;;18.10;78.50;;;;;;5053068;28;20051;-83
2021/07/04 01:40:45;;;;;;;8.93;3.60;;;18.10;78.50;;;;;;5053944;28;20055;-82
2021/07/04 01:43:12;;;;;;;10.95;3.80;;;18.00;78.60;;;;;;5052360;28;20049;-82
2021/07/04 01:45:40;;;;;;;10.68;3.50;;;18.00;78.60;;;;;;5052719;28;20053;-82
2021/07/04 01:48:08;;;;;;;9.90;3.33;;;18.00;78.60;;;;;;5052538;28;20416;-82
2021/07/04 01:50:39;;;;;;;13.73;4.20;;;18.00;78.60;;;;;;5052409;28;20051;-83
2021/07/04 01:53:06;;;;;;;7.43;3.72;;;18.00;78.60;;;;;;5052633;28;20048;-81
2021/07/04 01:55:33;;;;;;;9.00;3.88;;;18.00;78.60;;;;;;5053906;28;20100;-82
2021/07/04 01:58:00;;;;;;;12.00;3.50;;;17.90;78.50;;;;;;5052457;28;20408;-82
2021/07/04 02:00:33;;;;;;;11.80;3.90;;;17.90;78.50;;;;;;5052697;28;20132;-83
2021/07/04 02:03:03;;;;;;;6.97;3.70;;;17.90;78.50;;;;;;5053647;28;20522;-83
2021/07/04 02:05:31;;;;;;;5.90;3.60;;;17.90;78.60;;;;;;5053321;28;20057;-83
2021/07/04 02:07:58;;;;;;;7.53;3.38;;;17.90;78.60;;;;;;5052268;28;20045;-84
2021/07/04 02:10:28;;;;;;;7.75;3.75;;;17.90;78.70;;;;;;5085334;28;20049;-83
2021/07/04 02:12:56;;;;;;;11.68;3.45;;;17.90;78.80;;;;;;5053386;28;20052;-83
2021/07/04 02:15:29;;;;;;;7.13;3.58;;;17.90;78.90;;;;;;5053593;28;20420;-84
2021/07/04 02:17:57;;;;;;;7.18;3.75;;;17.90;79.00;;;;;;5052258;28;20053;-82
2021/07/04 02:20:33;;;;;;;7.90;3.15;;;17.90;79.10;;;;;;5052260;28;20049;-83
2021/07/04 02:23:09;;;;;;;8.57;3.28;;;17.90;79.20;;;;;;5052231;28;20420;-83
2021/07/04 02:25:37;;;;;;;5.75;3.38;;;17.90;79.30;;;;;;5051886;28;20055;-82
2021/07/04 02:28:06;;;;;;;8.98;3.97;;;17.90;79.30;;;;;;5052000;28;20053;-82
2021/07/04 02:30:34;;;;;;;9.07;3.60;;;17.90;79.30;;;;;;5053328;28;20047;-83
2021/07/04 02:33:03;;;;;;;12.93;4.50;;;17.90;79.40;;;;;;5052007;28;20048;-83
2021/07/04 02:35:31;;;;;;;12.38;4.03;;;17.90;79.50;;;;;;5052174;28;20060;-84
2021/07/04 02:37:58;;;;;;;11.55;3.85;;;17.90;79.50;;;;;;5052315;28;20538;-82
2021/07/04 02:40:26;;;;;;;8.70;3.85;;;17.90;79.50;;;;;;5084631;28;20409;-84
2021/07/04 02:42:54;;;;;;;11.57;4.30;;;17.90;79.50;;;;;;5051743;28;20049;-82
2021/07/04 02:45:21;;;;;;;12.00;3.70;;;17.90;79.50;;;;;;5052070;28;20053;-84
2021/07/04 02:47:48;;;;;;;9.43;3.50;;;17.90;79.50;;;;;;5052976;28;20052;-83
2021/07/04 02:50:20;;;;;;;11.07;3.65;;;17.90;79.50;;;;;;5052736;28;20049;-82
2021/07/04 02:52:52;;;;;;;8.65;4.20;;;17.90;79.60;;;;;;5052865;28;20049;-84
2021/07/04 02:55:21;;;;;;;7.82;3.80;;;17.90;79.60;;;;;;5051530;28;20407;-82
2021/07/04 02:57:48;;;;;;;10.45;3.83;;;17.90;79.60;;;;;;5051656;28;20051;-82
2021/07/04 03:00:20;;;;;;;13.73;4.10;;;17.90;79.60;;;;;;5053210;28;20060;-84
2021/07/04 03:02:47;;;;;;;8.90;4.32;;;17.90;79.60;;;;;;5051486;28;20064;-82
2021/07/04 03:05:15;;;;;;;10.93;4.20;;;17.80;79.60;;;;;;5052831;28;20045;-84
2021/07/04 03:07:43;;;;;;;10.30;3.83;;;17.90;79.60;;;;;;5051447;28;20431;-82
2021/07/04 03:10:17;;;;;;;8.13;3.47;;;17.80;79.60;;;;;;5051114;28;20057;-82
2021/07/04 03:12:44;;;;;;;8.18;3.38;;;17.80;79.70;;;;;;5084869;28;20055;-82
2021/07/04 03:15:14;;;;;;;14.80;3.95;;;17.80;79.70;;;;;;5051570;28;20095;-82
2021/07/04 03:17:42;;;;;;;15.25;4.47;;;17.80;79.70;;;;;;5052847;28;20136;-83
2021/07/04 03:20:11;;;;;;;10.27;4.10;;;17.80;79.70;;;;;;5051577;28;20500;-83
2021/07/04 03:22:39;;;;;;;13.10;4.43;;;17.80;79.80;;;;;;5052701;28;20059;-83
2021/07/04 03:25:07;;;;;;;6.05;3.80;;;17.80;79.80;;;;;;5051244;28;20056;-83
2021/07/04 03:27:36;;;;;;;12.68;4.20;;;17.80;79.90;;;;;;5084689;28;20044;-82
2021/07/04 03:30:11;;;;;;;13.95;3.70;;;17.80;79.90;;;;;;5051381;28;20045;-83
2021/07/04 03:32:39;;;;;;;9.63;3.90;;;17.80;80.00;;;;;;5052821;28;20411;-82
2021/07/04 03:35:09;;;;;;;9.38;3.90;;;17.80;80.00;;;;;;5051483;28;20111;-82
2021/07/04 03:37:36;;;;;;;16.23;4.07;;;17.80;80.00;;;;;;5051086;28;20492;-83
2021/07/04 03:40:06;;;;;;;8.45;3.80;;;17.80;80.10;;;;;;5051133;28;20514;-82
2021/07/04 03:42:33;;;;;;;6.72;3.72;;;17.80;80.10;;;;;;5051534;28;20056;-83
2021/07/04 03:45:00;;;;;;;8.02;3.70;;;17.80;80.10;;;;;;5052490;28;20045;-82
2021/07/04 03:47:28;;;;;;;8.23;3.90;;;17.80;80.10;;;;;;5054995;28;20045;-83
2021/07/04 03:49:55;;;;;;;9.00;4.40;;;17.90;80.20;;;;;;5054819;28;20111;-82
2021/07/04 03:52:23;;;;;;;9.93;4.50;;;17.80;80.20;;;;;;5054818;28;20087;-83
2021/07/04 03:54:50;;;;;;;9.45;3.88;;;17.80;80.20;;;;;;5055188;28;20060;-84
2021/07/04 03:57:23;;;;;;;8.52;4.63;;;17.90;80.30;;;;;;5056161;28;20049;-83
2021/07/04 04:00:01;;;;;;;10.15;4.35;;;17.80;80.40;;;;;;5056412;28;20056;-83
2021/07/04 04:02:28;;;;;;;8.52;4.57;;;17.80;80.40;;;;;;5054996;28;20513;-83
2021/07/04 04:04:56;;;;;;;11.15;4.50;;;17.80;80.50;;;;;;5055844;28;20515;-82
2021/07/04 04:07:24;;;;;;;11.98;4.88;;;17.80;80.60;;;;;;5054700;28;20045;-82
2021/07/04 04:09:52;;;;;;;12.07;4.63;;;17.80;80.60;;;;;;5087575;28;20060;-83
2021/07/04 04:12:20;;;;;;;10.65;5.40;;;17.80;80.70;;;;;;5088047;28;20411;-82
2021/07/04 04:14:47;;;;;;;15.60;5.97;;;17.80;80.70;;;;;;5054633;28;20059;-82
2021/07/04 04:17:14;;;;;;;7.35;6.00;;;17.90;80.70;;;;;;5054555;28;20049;-82
2021/07/04 04:19:42;;;;;;;6.80;4.53;;;17.80;80.80;;;;;;5054680;28;20092;-83
2021/07/04 04:22:10;;;;;;;9.90;4.63;;;17.90;80.90;;;;;;5054037;28;20106;-82
2021/07/04 04:24:37;;;;;;;6.43;4.60;;;17.80;81.00;;;;;;5054488;28;20059;-82
2021/07/04 04:27:05;;;;;;;8.70;5.43;;;17.90;81.00;;;;;;5087724;28;20120;-82
2021/07/04 04:29:33;;;;;;;8.88;4.50;;;17.90;81.00;;;;;;5054660;28;20055;-82
2021/07/04 04:32:00;;;;;;;9.55;4.50;;;17.90;81.00;;;;;;5054610;28;20052;-82
2021/07/04 04:34:27;;;;;;;8.93;5.43;;;17.90;81.00;;;;;;5054706;28;20045;-82
2021/07/04 04:36:59;;;;;;;9.98;5.28;;;17.90;81.00;;;;;;5054014;28;20447;-82
2021/07/04 04:39:27;;;;;;;8.63;4.35;;;17.90;81.00;;;;;;5053964;28;20059;-82
2021/07/04 04:41:54;;;;;;;9.00;4.95;;;17.90;81.10;;;;;;5055255;28;20049;-82
2021/07/04 04:44:34;;;;;;;8.90;5.00;;;17.90;81.10;;;;;;5054141;28;20045;-82
2021/07/04 04:47:02;;;;;;;7.15;5.10;;;17.90;81.20;;;;;;5053943;28;20059;-82
2021/07/04 04:49:29;;;;;;;9.82;4.22;;;17.90;81.20;;;;;;5055019;28;20045;-82
2021/07/04 04:51:56;;;;;;;7.82;5.18;;;17.90;81.20;;;;;;5054871;28;20045;-82
2021/07/04 04:54:23;;;;;;;8.23;4.55;;;17.90;81.30;;;;;;5053832;28;20056;-82
2021/07/04 04:56:50;;;;;;;17.10;4.70;;;18.00;81.30;;;;;;5055135;28;20044;-82
2021/07/04 04:59:17;;;;;;;8.88;5.05;;;18.00;81.40;;;;;;5053695;28;20048;-82
2021/07/04 05:01:44;;;;;;;13.90;5.40;;;18.00;81.40;;;;;;5070202;28;20057;-81
2021/07/04 05:04:11;;;;;;;11.68;5.13;;;18.00;81.40;;;;;;5070010;28;20053;-82
2021/07/04 05:06:38;;;;;;;8.05;4.15;;;18.00;81.40;;;;;;5086931;28;20064;-82
2021/07/04 05:09:05;;;;;;;10.25;5.20;;;18.00;81.40;;;;;;5086708;28;20500;-82
2021/07/04 05:11:32;;;;;;;11.32;5.57;;;18.00;81.30;;;;;;5054491;28;20408;-82
2021/07/04 05:13:59;;;;;;;8.25;4.80;;;18.00;81.30;;;;;;5053536;28;20045;-81
2021/07/04 05:16:26;;;;;;;8.75;5.38;;;18.00;81.30;;;;;;5053465;28;20056;-81
2021/07/04 05:18:53;;;;;;;7.05;5.18;;;18.00;81.30;;;;;;5086261;28;20048;-81
2021/07/04 05:21:20;;;;;;;6.10;4.50;;;18.10;81.30;;;;;;5054720;28;20049;-82
2021/07/04 05:23:48;;;;;;;7.45;4.75;;;18.00;81.40;;;;;;5086596;28;20052;-81
2021/07/04 05:26:18;;;;;;;10.20;5.90;;;18.10;81.40;;;;;;5053265;28;20049;-81
2021/07/04 05:28:46;;;;;;;6.85;5.13;;;18.10;81.50;;;;;;5053227;28;20045;-82
2021/07/04 05:31:13;;;;;;;7.82;4.80;;;18.10;81.60;;;;;;5052893;28;20051;-81
2021/07/04 05:33:41;;;;;;;10.38;5.20;;;18.10;81.60;;;;;;5052805;28;20083;-81
2021/07/04 05:36:08;;;;;;;7.72;4.85;;;18.20;81.70;;;;;;5086295;28;20051;-82
2021/07/04 05:38:37;;;;;;;10.00;5.13;;;18.20;81.70;;;;;;5052910;28;20408;-81
2021/07/04 05:41:04;;;;;;;8.60;4.35;;;18.20;81.80;;;;;;5086079;28;20052;-81
2021/07/04 05:43:31;;;;;;;8.10;5.00;;;18.20;81.80;;;;;;5052835;28;20059;-81
2021/07/04 05:45:59;;;;;;;8.25;4.45;;;18.20;81.80;;;;;;5053872;28;20534;-81
2021/07/04 05:48:28;;;;;;;12.68;4.10;;;18.30;81.90;;;;;;5050727;28;20471;-81
2021/07/04 05:50:56;;;;;;;6.47;4.38;;;18.30;81.90;;;;;;5053062;28;20045;-81
2021/07/04 05:53:24;;;;;;;9.57;4.05;;;18.30;81.90;;;;;;5058748;28;20036;-81
2021/07/04 05:55:51;;;;;;;9.05;3.67;;;18.40;81.90;;;;;;5070260;28;20048;-81
2021/07/04 05:58:19;;;;;;;6.05;3.83;;;18.40;81.90;;;;;;5088473;28;20056;-81
2021/07/04 06:00:47;;;;;;;5.57;3.40;;;18.40;81.90;;;;;;5071396;28;20050;-81
2021/07/04 06:03:14;;;;;;;4.53;3.00;;;18.40;81.80;;;;;;5055353;28;20508;-81
2021/07/04 06:05:41;;;;;;;4.18;3.05;;;18.40;81.70;;;;;;5058162;28;20044;-80
2021/07/04 06:08:09;;;;;;;10.57;3.15;;;18.40;81.60;;;;;;5070476;28;20061;-83
2021/07/04 06:10:41;;;;;;;4.82;2.80;;;18.40;81.50;;;;;;5087832;28;20040;-89
2021/07/04 06:13:08;;;;;;;4.53;2.90;;;18.30;81.40;;;;;;5087951;28;20074;-87
2021/07/04 06:15:38;;;;;;;12.73;3.35;;;18.30;81.30;;;;;;5071382;28;20434;-86
2021/07/04 06:18:05;;;;;;;8.00;2.97;;;18.30;81.20;;;;;;5070916;28;20045;-86
2021/07/04 06:20:32;;;;;;;7.53;2.67;;;18.20;81.20;;;;;;5087931;28;20064;-87
2021/07/04 06:22:59;;;;;;;5.72;2.65;;;18.20;81.10;;;;;;5071152;28;20056;-86
2021/07/04 06:25:26;;;;;;;6.05;3.00;;;18.20;81.10;;;;;;5071601;28;20059;-85
2021/07/04 06:27:54;;;;;;;11.63;2.72;;;18.10;81.10;;;;;;5087988;28;20110;-84
2021/07/04 06:30:21;;;;;;;12.25;2.72;;;18.10;81.10;;;;;;5070730;28;20499;-83
2021/07/04 06:32:48;;;;;;;11.10;2.80;;;18.00;81.00;;;;;;5070900;28;20521;-83
2021/07/04 06:35:17;;;;;;;29.25;4.18;;;18.00;81.10;;;;;;5070584;28;20430;-83
2021/07/04 06:37:45;;;;;;;9.30;3.00;;;18.00;81.20;;;;;;5070616;28;20049;-83
2021/07/04 06:40:13;;;;;;;8.90;3.53;;;17.90;81.30;;;;;;5071097;28;20056;-83
2021/07/04 06:42:40;;;;;;;8.90;3.30;;;17.90;81.30;;;;;;5067397;28;20051;-83
2021/07/04 06:45:11;;;;;;;6.05;3.03;;;17.90;81.30;;;;;;5083944;28;20111;-84
2021/07/04 06:47:39;;;;;;;5.50;2.42;;;17.90;81.30;;;;;;5083951;28;20056;-84
2021/07/04 06:50:08;;;;;;;9.88;2.80;;;17.80;81.20;;;;;;5083504;28;20079;-84
2021/07/04 06:52:35;;;;;;;8.85;2.90;;;17.70;81.30;;;;;;5050769;28;20051;-86
2021/07/04 06:55:05;;;;;;;6.25;2.58;;;17.70;81.40;;;;;;5050781;28;20049;-84
2021/07/04 06:57:32;;;;;;;5.35;2.33;;;17.60;81.40;;;;;;5050829;28;20045;-82
2021/07/04 07:00:07;;;;;;;6.68;2.10;;;17.60;81.50;;;;;;5050963;28;20060;-83
2021/07/04 07:02:38;;;;;;;5.10;2.15;;;17.60;81.50;;;;;;5050287;28;20060;-84
2021/07/04 07:05:10;;;;;;;11.17;2.70;;;17.60;81.50;;;;;;5050447;28;20128;-84
2021/07/04 07:07:38;;;;;;;4.30;2.05;;;17.50;81.60;;;;;;5050335;28;20053;-83
2021/07/04 07:10:07;;;;;;;7.90;2.72;;;17.60;81.60;;;;;;5049975;28;20056;-84
2021/07/04 07:12:35;;;;;;;4.57;1.92;;;17.50;81.60;;;;;;5084066;28;20063;-84
2021/07/04 07:15:03;;;;;;;5.45;2.38;;;17.50;81.60;;;;;;5050550;28;20055;-83
2021/07/04 07:17:31;;;;;;;7.65;1.98;;;17.50;81.60;;;;;;5050516;28;20123;-84
2021/07/04 07:19:58;;;;;;;4.15;2.10;;;17.50;81.50;;;;;;5051685;28;20494;-84
2021/07/04 07:22:27;;;;;;;5.88;2.03;;;17.50;81.50;;;;;;5054831;28;20049;-84
2021/07/04 07:24:55;;;;;;;4.80;1.80;;;17.50;81.60;;;;;;5087688;28;20424;-84
2021/07/04 07:27:22;;;;;;;4.63;1.75;;;17.50;81.60;;;;;;5054431;28;20048;-85
2021/07/04 07:29:49;;;;;;;5.05;1.88;;;17.50;81.60;;;;;;5053871;28;20118;-85
2021/07/04 07:32:16;;;;;;;4.53;1.85;;;17.50;81.60;;;;;;5055080;28;20427;-84
2021/07/04 07:34:43;;;;;;;5.72;1.67;;;17.50;81.60;;;;;;5055630;28;20128;-84
2021/07/04 07:37:11;;;;;;;6.03;1.50;;;17.50;81.50;;;;;;5087332;28;20053;-83
2021/07/04 07:39:39;;;;;;;5.40;2.42;;;17.50;81.60;;;;;;5053856;28;20144;-84
2021/07/04 07:42:06;;;;;;;7.65;2.22;;;17.50;81.60;;;;;;5094047;28;20055;-84
2021/07/04 07:44:33;;;;;;;4.05;2.28;;;17.50;81.70;;;;;;5073697;28;20432;-83
2021/07/04 07:47:00;;;;;;;5.07;1.77;;;17.50;81.70;;;;;;5073770;28;20076;-84
2021/07/04 07:49:28;;;;;;;4.57;1.60;;;17.50;81.70;;;;;;5090587;28;20109;-83
2021/07/04 07:51:55;;;;;;;4.05;1.60;;;17.50;81.70;;;;;;5055089;28;20508;-83
2021/07/04 07:54:26;;;;;;;9.65;1.90;;;17.60;81.70;;;;;;5070431;28;20063;-84
2021/07/04 07:56:54;;;;;;;4.60;1.70;;;17.50;81.80;;;;;;5054108;28;20049;-84
2021/07/04 07:59:21;;;;;;;7.18;1.67;;;17.50;81.80;;;;;;5053799;28;20055;-85
2021/07/04 08:01:48;;;;;;;9.85;1.73;;;17.60;81.80;;;;;;5053427;28;20053;-84
2021/07/04 08:04:16;;;;;;;3.45;1.60;;;17.60;81.80;;;;;;5051083;28;20045;-84
2021/07/04 08:06:43;;;;;;;5.85;1.95;;;17.60;81.90;;;;;;5033150;28;20057;-83
2021/07/04 08:09:10;;;;;;;6.60;1.80;;;17.60;81.90;;;;;;5050934;28;20072;-83
2021/07/04 08:11:37;;;;;;;6.85;1.40;;;17.60;81.90;;;;;;5053332;28;20048;-83
2021/07/04 08:14:07;;;;;;;6.57;1.55;;;17.60;81.90;;;;;;5054410;28;20059;-84
2021/07/04 08:16:34;;;;;;;4.00;1.60;;;17.60;81.90;;;;;;5071122;28;20423;-84
2021/07/04 08:19:01;;;;;;;8.77;1.92;;;17.60;81.90;;;;;;5054751;28;20062;-84
2021/07/04 08:21:29;;;;;;;4.85;1.45;;;17.60;81.90;;;;;;5054371;28;20045;-85
2021/07/04 08:23:57;;;;;;;2.90;1.40;;;17.60;81.80;;;;;;5054759;28;20049;-83
2021/07/04 08:26:24;;;;;;;4.60;1.80;;;17.60;81.70;;;;;;5070936;28;20487;-84
2021/07/04 08:28:51;;;;;;;6.18;1.67;;;17.60;81.70;;;;;;5054540;28;20057;-84
2021/07/04 08:31:18;;;;;;;4.00;1.42;;;17.50;81.70;;;;;;5053773;28;20397;-87
2021/07/04 08:33:46;;;;;;;4.97;1.45;;;17.60;81.80;;;;;;5070975;28;20500;-86
2021/07/04 08:36:13;;;;;;;4.93;1.80;;;17.50;81.90;;;;;;5054387;28;20410;-83
2021/07/04 08:38:40;;;;;;;4.35;1.92;;;17.50;82.00;;;;;;5054377;28;20518;-84
2021/07/04 08:41:07;;;;;;;4.97;1.65;;;17.50;82.00;;;;;;5053906;28;20506;-84
2021/07/04 08:43:36;;;;;;;11.15;1.92;;;17.50;82.10;;;;;;5054044;28;20056;-85
2021/07/04 08:46:09;;;;;;;3.10;1.73;;;17.50;82.10;;;;;;5054438;28;20057;-84
2021/07/04 08:48:38;;;;;;;5.43;1.83;;;17.40;82.20;;;;;;5054241;28;20140;-84
2021/07/04 08:51:07;;;;;;;4.45;1.70;;;17.40;82.20;;;;;;5053820;28;20132;-84
2021/07/04 08:53:34;;;;;;;6.00;1.63;;;17.40;82.30;;;;;;5053919;28;20067;-84
2021/07/04 08:56:02;;;;;;;4.68;1.50;;;17.40;82.30;;;;;;5054270;28;20057;-83
2021/07/04 08:58:29;;;;;;;6.40;1.40;;;17.40;82.30;;;;;;5053613;28;20051;-83
2021/07/04 09:01:17;;;;;;;8.00;2.35;;;17.40;82.40;;;;;;5053843;28;20475;-82
2021/07/04 09:03:47;;;;;;;4.60;1.25;;;17.40;82.40;;;;;;5054737;28;20049;-83
2021/07/04 09:06:34;;;;;;;5.03;1.40;;;17.40;82.40;;;;;;5054622;28;20132;-83
2021/07/04 09:09:20;;;;;;;5.22;1.48;;;17.40;82.50;;;;;;5053236;28;20052;-83
2021/07/04 09:11:56;;;;;;;11.07;1.40;;;17.40;82.50;;;;;;5069525;28;20049;-82
2021/07/04 09:14:33;;;;;;;6.55;1.70;;;17.30;82.60;;;;;;5053364;28;20137;-83
2021/07/04 09:17:15;;;;;;;4.78;1.65;;;17.40;82.70;;;;;;5068404;28;20128;-83
2021/07/04 09:19:59;;;;;;;3.45;1.35;;;17.30;82.70;;;;;;5053618;28;20052;-83
2021/07/04 09:22:35;;;;;;;;;;;17.30;82.70;;;;;;5053487;28;20107;-83
2021/07/04 09:25:19;;;;;;;8.57;1.50;;;17.40;82.80;;;;;;5053031;28;19921;-82
2021/07/04 09:28:11;;;;;;;5.22;1.52;;;17.40;82.80;;;;;;5069348;28;20514;-82
2021/07/04 09:30:58;;;;;;;9.02;1.40;;;17.40;82.90;;;;;;5069848;28;20131;-84
2021/07/04 09:33:31;;;;;;;2.72;1.30;;;17.40;82.90;;;;;;5086480;28;20071;-83
2021/07/04 09:35:59;;;;;;;4.25;1.45;;;17.40;82.90;;;;;;5086456;28;20132;-82
2021/07/04 09:38:40;;;;;;;8.77;1.50;;;17.40;82.90;;;;;;5069582;28;20053;-83
2021/07/04 09:41:12;;;;;;;4.07;1.20;;;17.40;83.00;;;;;;5053024;28;20432;-82
2021/07/04 09:43:40;;;;;;;11.38;1.40;;;17.40;83.00;;;;;;5085416;28;20045;-83
2021/07/04 09:46:15;;;;;;;3.67;1.38;;;17.50;83.10;;;;;;5086307;28;20049;-82
2021/07/04 09:48:50;;;;;;;3.35;1.48;;;17.50;83.10;;;;;;5086026;28;20049;-83
2021/07/04 09:51:23;;;;;;;6.70;1.48;;;17.50;83.10;;;;;;5053979;28;20053;-83
2021/07/04 09:53:54;;;;;;;5.17;1.73;;;17.60;83.20;;;;;;5052838;28;20056;-82
2021/07/04 09:56:29;;;;;;;4.75;1.20;;;17.50;83.20;;;;;;5052471;28;20055;-83
2021/07/04 09:58:58;;;;;;;5.80;1.30;;;17.60;83.20;;;;;;5052955;28;20051;-83
2021/07/04 10:01:35;;;;;;;2.63;1.00;;;17.60;83.20;;;;;;5052488;28;20052;-83
2021/07/04 10:04:06;;;;;;;7.18;1.40;;;17.60;83.20;;;;;;5052373;28;20053;-83
2021/07/04 10:06:46;;;;;;;5.50;1.40;;;17.70;83.10;;;;;;5053535;28;20148;-83
2021/07/04 10:09:14;;;;;;;8.40;1.02;;;17.70;83.20;;;;;;5052015;28;20063;-83
2021/07/04 10:11:42;;;;;;;11.68;1.02;;;17.80;83.20;;;;;;5052181;28;20071;-83
2021/07/04 10:14:09;;;;;;;8.23;0.93;;;17.90;83.20;;;;;;5052440;28;20047;-83
2021/07/04 10:16:37;;;;;;;2.10;0.95;;;17.90;83.10;;;;;;5052390;28;20487;-83
2021/07/04 10:19:05;;;;;;;10.00;1.08;;;17.90;83.10;;;;;;5053332;28;20136;-83
2021/07/04 10:21:34;;;;;;;1.77;0.90;;;18.10;83.00;;;;;;5085629;28;20059;-83
2021/07/04 10:24:01;;;;;;;3.42;1.13;;;18.10;83.00;;;;;;5052988;28;20132;-83
2021/07/04 10:26:34;;;;;;;3.92;0.95;;;18.20;83.00;;;;;;5052246;28;20049;-82
2021/07/04 10:29:03;;;;;;;7.75;1.30;;;18.30;83.10;;;;;;5053442;28;20052;-82
2021/07/04 10:31:32;;;;;;;2.28;1.00;;;18.40;83.00;;;;;;5053041;28;20056;-82
2021/07/04 10:34:11;;;;;;;8.68;1.10;;;18.40;83.00;;;;;;5051947;28;20095;-83
2021/07/04 10:36:58;;;;;;;2.47;1.10;;;18.40;82.90;;;;;;5052394;28;20526;-81
2021/07/04 10:39:26;;;;;;;3.08;0.90;;;18.50;82.90;;;;;;5051633;28;20045;-84
2021/07/04 10:42:02;;;;;;;5.90;1.10;;;18.60;82.80;;;;;;5052195;28;20056;-85
2021/07/04 10:44:45;;;;;;;1.83;0.80;;;18.60;82.70;;;;;;5052006;28;20053;-83
2021/07/04 10:47:20;;;;;;;2.10;0.80;;;18.60;82.50;;;;;;5052123;28;20052;-84
2021/07/04 10:50:08;;;;;;;4.93;1.27;;;18.70;82.30;;;;;;5052994;28;20051;-83
2021/07/04 10:52:43;;;;;;;5.22;1.40;;;18.70;82.00;;;;;;5051417;28;20045;-83
2021/07/04 10:55:12;;;;;;;2.50;0.98;;;18.70;81.80;;;;;;5051849;28;20066;-84
2021/07/04 10:57:48;;;;;;;2.50;1.00;;;18.80;81.50;;;;;;5051689;28;20060;-83
2021/07/04 11:00:19;;;;;;;2.25;0.77;;;18.80;81.10;;;;;;5051729;28;20071;-83
2021/07/04 11:02:53;;;;;;;1.77;0.80;;;18.80;80.90;;;;;;5051482;28;20045;-82
2021/07/04 11:05:34;;;;;;;;;;;18.90;80.70;;;;;;5053176;28;20411;-82
2021/07/04 11:08:09;;;;;;;1.20;0.70;;;18.90;80.50;;;;;;5084742;28;20011;-81
2021/07/04 11:10:39;;;;;;;2.67;0.70;;;19.00;80.40;;;;;;5051658;28;20052;-82
2021/07/04 11:13:09;;;;;;;2.50;0.90;;;19.10;80.50;;;;;;5051641;28;20530;-82
2021/07/04 11:15:37;;;;;;;2.47;0.65;;;19.10;80.60;;;;;;5052633;28;20048;-82
2021/07/04 11:18:09;;;;;;;3.33;0.85;;;19.10;80.60;;;;;;5051566;28;20041;-82
2021/07/04 11:20:43;;;;;;;2.60;1.15;;;19.30;80.60;;;;;;5052962;28;20049;-82
2021/07/04 11:23:12;;;;;;;3.03;0.70;;;19.30;80.50;;;;;;5050574;28;20051;-82
2021/07/04 11:25:44;;;;;;;1.00;0.55;;;19.40;80.30;;;;;;5049585;28;20041;-82
2021/07/04 11:28:20;;;;;;;3.47;0.82;;;19.40;80.10;;;;;;5052566;28;20051;-81
2021/07/04 11:30:47;;;;;;;8.98;0.80;;;19.50;79.90;;;;;;5051367;28;20404;-82
2021/07/04 11:33:32;;;;;;;3.80;1.05;;;19.50;79.90;;;;;;5052776;28;20512;-82
2021/07/04 11:36:09;;;;;;;1.63;0.73;;;19.60;79.60;;;;;;5052416;28;20428;-82
2021/07/04 11:38:50;;;;;;;2.25;0.80;;;19.70;79.30;;;;;;5051298;28;20049;-82
2021/07/04 11:41:30;;;;;;;1.63;0.77;;;19.70;78.80;;;;;;5053052;28;20051;-82
2021/07/04 11:44:13;;;;;;;6.18;1.00;;;19.70;78.50;;;;;;5051636;28;20053;-82
2021/07/04 11:46:42;;;;;;;4.57;0.98;;;19.80;78.40;;;;;;5052124;28;20056;-82
2021/07/04 11:49:15;;;;;;;2.53;0.95;;;19.80;78.30;;;;;;5051253;28;20420;-82
2021/07/04 11:51:58;;;;;;;1.35;0.77;;;19.90;78.40;;;;;;5050654;28;20075;-82
2021/07/04 11:54:27;;;;;;;3.28;0.90;;;19.90;78.40;;;;;;5051321;28;20059;-81
2021/07/04 11:59:55;;;;;;;2.17;0.85;;;19.90;78.50;;;;;;5052265;28;20053;-83
2021/07/04 12:02:23;;;;;;;2.45;0.90;;;19.90;78.50;;;;;;5050855;28;20055;-82
2021/07/04 12:04:50;;;;;;;4.60;1.02;;;19.90;78.50;;;;;;5050941;28;20514;-83
2021/07/04 12:07:24;;;;;;;2.15;1.00;;;19.90;78.50;;;;;;5054097;28;20052;-82
2021/07/04 12:09:56;;;;;;;4.60;0.95;;;19.90;78.40;;;;;;5054513;28;20049;-83
2021/07/04 12:12:35;;;;;;;5.05;1.08;;;20.00;78.30;;;;;;5087952;28;20047;-82
2021/07/04 12:15:08;;;;;;;6.45;1.10;;;20.00;78.20;;;;;;5054437;28;20049;-82
2021/07/04 12:17:38;;;;;;;5.80;1.50;;;20.10;78.10;;;;;;5054575;28;20044;-83
2021/07/04 12:20:22;;;;;;;4.40;1.30;;;20.10;78.10;;;;;;5054140;28;20491;-83
2021/07/04 12:22:56;;;;;;;2.95;1.38;;;20.20;78.30;;;;;;5054387;28;20519;-83
2021/07/04 12:25:27;;;;;;;2.65;1.20;;;20.30;78.40;;;;;;5070884;28;20052;-84
2021/07/04 12:28:00;;;;;;;2.78;1.42;;;20.40;78.30;;;;;;5070886;28;20045;-83
2021/07/04 12:30:29;;;;;;;9.85;1.42;;;20.50;78.40;;;;;;5087843;28;20048;-83
2021/07/04 12:33:20;;;;;;;2.72;1.25;;;20.80;78.60;;;;;;5087380;28;20128;-85
2021/07/04 12:35:49;;;;;;;4.00;1.20;;;20.90;77.90;;;;;;5087264;28;20045;-85
2021/07/04 12:38:40;;;;;;;2.50;1.10;;;21.10;77.30;;;;;;5070881;28;20045;-85
2021/07/04 12:41:14;;;;;;;3.42;1.50;;;21.30;76.90;;;;;;5087535;28;20045;-84
2021/07/04 12:43:47;;;;;;;5.80;1.15;;;21.40;76.50;;;;;;5055334;28;20045;-85
2021/07/04 12:46:23;;;;;;;3.67;1.40;;;21.60;76.30;;;;;;5087322;28;20490;-85
2021/07/04 12:48:55;;;;;;;12.90;1.60;;;21.70;75.90;;;;;;5087051;28;20075;-86
2021/07/04 12:51:33;;;;;;;5.20;1.20;;;21.90;76.00;;;;;;5086950;28;20132;-85
2021/07/04 12:54:22;;;;;;;10.63;1.90;;;22.00;75.70;;;;;;5054122;28;20108;-85
2021/07/04 12:56:52;;;;;;;5.65;1.50;;;22.20;75.30;;;;;;5053832;28;20508;-84
2021/07/04 12:59:28;;;;;;;5.13;1.30;;;22.40;74.80;;;;;;5054800;28;20401;-86
2021/07/04 13:02:01;;;;;;;4.65;1.30;;;22.40;74.20;;;;;;5053565;28;20507;-85
2021/07/04 13:04:29;;;;;;;9.02;1.30;;;22.40;73.90;;;;;;5053085;28;20080;-85